Time;durP1;ratioP1;P1;durP2;ratioP2;P2;SDS_P1;SDS_P2;PMS_P1;PMS_P2;Temp;Humidity;BMP_temperature;BMP_pressure;BME280_temperature;BME280_humidity;BME280_pressure;Samples;Min_cycle;Max_cycle;Signal;HPM_P1;HPM_P2
2023/06/13 00:00:31;;;;;;;0.10;0.10;;;15.70;94.80;;;;;;5072869;28;20199;-78
2023/06/13 00:02:58;;;;;;;0.10;0.10;;;15.60;94.70;;;;;;5065487;28;20808;-77
2023/06/13 00:05:23;;;;;;;0.10;0.10;;;15.70;94.90;;;;;;5070653;28;20271;-79
2023/06/13 00:07:49;;;;;;;0.10;0.10;;;15.80;95.10;;;;;;5076930;28;20950;-78
2023/06/13 00:10:16;;;;;;;0.10;0.10;;;15.80;95.30;;;;;;5079581;28;20665;-75
2023/06/13 00:12:44;;;;;;;0.10;0.10;;;15.70;95.30;;;;;;5081957;28;20452;-78
2023/06/13 00:15:11;;;;;;;0.10;0.10;;;15.60;95.80;;;;;;5091559;28;20169;-78
2023/06/13 00:17:40;;;;;;;0.10;0.10;;;15.50;95.40;;;;;;5092258;28;20465;-78
2023/06/13 00:20:07;;;;;;;0.10;0.10;;;15.50;95.50;;;;;;5079694;28;20443;-78
2023/06/13 00:22:33;;;;;;;0.10;0.10;;;15.40;96.00;;;;;;5069518;28;20436;-77
2023/06/13 00:24:58;;;;;;;0.10;0.10;;;15.40;96.50;;;;;;5070681;28;20451;-78
2023/06/13 00:27:24;;;;;;;0.10;0.10;;;15.30;96.80;;;;;;5055310;28;20513;-77
2023/06/13 00:29:50;;;;;;;0.10;0.10;;;15.30;96.90;;;;;;5063301;28;20638;-77
2023/06/13 00:32:17;;;;;;;0.10;0.10;;;15.20;97.40;;;;;;5070430;28;20182;-77
2023/06/13 00:34:43;;;;;;;0.10;0.10;;;15.10;97.70;;;;;;5053489;28;20193;-77
2023/06/13 00:37:09;;;;;;;0.10;0.10;;;15.20;98.30;;;;;;5071256;28;20452;-77
2023/06/13 00:39:36;;;;;;;0.10;0.10;;;15.00;98.70;;;;;;5069832;28;20432;-77
2023/06/13 00:42:02;;;;;;;0.10;0.10;;;15.00;99.20;;;;;;5074659;28;20444;-78
2023/06/13 00:44:28;;;;;;;0.10;0.10;;;15.00;99.50;;;;;;5071247;28;20451;-75
2023/06/13 00:46:53;;;;;;;0.10;0.10;;;15.10;99.60;;;;;;5071539;28;20483;-76
2023/06/13 00:49:19;;;;;;;0.10;0.10;;;15.00;99.90;;;;;;5056704;28;20557;-77
2023/06/13 00:51:46;;;;;;;0.10;0.10;;;14.90;99.90;;;;;;5065498;28;20209;-77
2023/06/13 00:54:14;;;;;;;0.10;0.10;;;14.90;99.90;;;;;;5049513;28;20181;-77
2023/06/13 00:56:41;;;;;;;0.10;0.10;;;14.90;99.90;;;;;;5078075;28;20452;-77
2023/06/13 00:59:08;;;;;;;0.10;0.10;;;14.90;99.90;;;;;;5070281;28;20460;-77
2023/06/13 01:01:34;;;;;;;0.10;0.10;;;14.80;99.90;;;;;;5071728;28;20450;-77
2023/06/13 01:04:00;;;;;;;0.10;0.10;;;14.70;99.90;;;;;;5080168;28;20430;-77
2023/06/13 01:06:30;;;;;;;0.10;0.10;;;14.60;99.90;;;;;;5074357;28;20214;-78
2023/06/13 01:09:02;;;;;;;0.10;0.10;;;14.60;99.90;;;;;;5067444;28;20444;-77
2023/06/13 01:11:50;;;;;;;0.10;0.10;;;14.50;99.90;;;;;;5069325;28;20963;-77
2023/06/13 01:14:40;;;;;;;0.10;0.10;;;14.50;99.90;;;;;;5077449;28;20459;-76
2023/06/13 01:17:14;;;;;;;0.10;0.10;;;14.50;99.90;;;;;;5066540;28;20472;-77
2023/06/13 01:19:43;;;;;;;0.10;0.10;;;14.50;99.90;;;;;;5066662;28;20461;-77
2023/06/13 01:22:16;;;;;;;0.10;0.10;;;14.40;99.90;;;;;;5066094;28;20452;-75
2023/06/13 01:25:00;;;;;;;0.10;0.10;;;14.40;99.90;;;;;;5070237;28;20450;-75
2023/06/13 01:27:27;;;;;;;0.10;0.10;;;14.30;99.90;;;;;;5070904;28;20483;-77
2023/06/13 01:29:53;;;;;;;0.10;0.10;;;14.30;99.90;;;;;;5070509;28;20932;-77
2023/06/13 01:32:21;;;;;;;0.10;0.10;;;14.30;99.90;;;;;;5067358;28;20817;-77
2023/06/13 01:34:48;;;;;;;0.10;0.10;;;14.20;99.90;;;;;;5074267;28;20432;-77
2023/06/13 01:37:14;;;;;;;0.10;0.10;;;14.00;99.90;;;;;;5070299;28;20447;-77
2023/06/13 01:39:41;;;;;;;0.10;0.10;;;14.00;99.90;;;;;;5072522;28;20538;-77
2023/06/13 01:42:07;;;;;;;0.10;0.10;;;14.10;99.90;;;;;;5053324;28;20432;-77
2023/06/13 01:44:33;;;;;;;0.10;0.10;;;14.00;99.90;;;;;;5052548;28;20535;-78
2023/06/13 01:47:08;;;;;;;0.10;0.10;;;13.90;99.90;;;;;;5051010;28;20858;-77
2023/06/13 01:49:55;;;;;;;0.10;0.10;;;13.50;99.90;;;;;;5078061;28;20495;-77
2023/06/13 01:52:42;;;;;;;0.10;0.10;;;13.60;99.90;;;;;;5054997;28;20455;-77
2023/06/13 01:55:32;;;;;;;0.10;0.10;;;13.40;99.90;;;;;;5075166;28;20434;-75
2023/06/13 01:58:09;;;;;;;0.10;0.10;;;13.40;99.90;;;;;;5071866;28;20458;-75
2023/06/13 02:00:37;;;;;;;0.10;0.10;;;13.20;99.90;;;;;;5069808;28;20498;-75
2023/06/13 02:03:03;;;;;;;0.10;0.10;;;13.10;99.90;;;;;;5051812;28;20539;-77
2023/06/13 02:05:29;;;;;;;0.10;0.10;;;13.00;99.90;;;;;;5077858;28;20428;-76
2023/06/13 02:07:56;;;;;;;0.10;0.10;;;13.00;99.90;;;;;;5069210;28;20491;-76
2023/06/13 02:10:23;;;;;;;0.10;0.10;;;12.90;99.90;;;;;;5076743;28;20234;-76
2023/06/13 02:12:49;;;;;;;0.10;0.10;;;13.00;99.90;;;;;;5075679;28;20478;-77
2023/06/13 02:15:14;;;;;;;0.10;0.10;;;13.00;99.90;;;;;;5066051;28;20771;-77
2023/06/13 02:17:40;;;;;;;0.10;0.10;;;13.00;99.90;;;;;;5077222;28;20216;-77
2023/06/13 02:20:06;;;;;;;0.10;0.10;;;12.90;99.90;;;;;;5056554;28;20272;-77
2023/06/13 02:22:32;;;;;;;0.10;0.10;;;12.90;99.90;;;;;;5075123;28;20440;-77
2023/06/13 02:24:58;;;;;;;0.10;0.10;;;12.90;99.90;;;;;;5065713;28;20513;-77
2023/06/13 02:27:23;;;;;;;0.10;0.10;;;12.90;99.90;;;;;;5056718;28;20228;-77
2023/06/13 02:29:49;;;;;;;0.10;0.10;;;12.70;99.90;;;;;;5082629;28;20181;-77
2023/06/13 02:32:15;;;;;;;0.10;0.10;;;12.70;99.90;;;;;;5070891;28;20197;-75
2023/06/13 02:34:40;;;;;;;0.10;0.10;;;12.60;99.90;;;;;;5081327;28;20213;-77
2023/06/13 02:37:06;;;;;;;0.10;0.10;;;12.60;99.90;;;;;;5081464;28;20486;-76
2023/06/13 02:39:31;;;;;;;0.10;0.10;;;12.70;99.90;;;;;;5053205;28;20201;-76
2023/06/13 02:41:57;;;;;;;0.10;0.10;;;12.60;99.90;;;;;;5070959;28;20697;-77
2023/06/13 02:44:22;;;;;;;0.10;0.10;;;12.60;99.90;;;;;;5069573;28;20673;-77
2023/06/13 02:46:48;;;;;;;0.10;0.10;;;12.60;99.90;;;;;;5067779;28;20229;-77
2023/06/13 02:49:13;;;;;;;0.10;0.10;;;12.60;99.90;;;;;;5073868;28;20222;-77
2023/06/13 02:51:39;;;;;;;0.10;0.10;;;12.70;99.90;;;;;;5072911;28;20190;-77
2023/06/13 02:54:04;;;;;;;0.10;0.10;;;12.70;99.90;;;;;;5053265;28;20277;-75
2023/06/13 02:56:30;;;;;;;0.10;0.10;;;12.90;99.90;;;;;;5050287;28;20609;-76
2023/06/13 02:58:55;;;;;;;0.20;0.20;;;12.80;99.90;;;;;;5050533;28;20723;-77
2023/06/13 03:01:21;;;;;;;0.10;0.10;;;12.90;99.90;;;;;;5082087;28;20732;-77
2023/06/13 03:03:47;;;;;;;0.10;0.10;;;12.70;99.90;;;;;;5086617;28;20222;-76
2023/06/13 03:06:16;;;;;;;0.10;0.10;;;12.80;99.90;;;;;;5070582;28;20285;-77
2023/06/13 03:08:42;;;;;;;0.10;0.10;;;12.90;99.90;;;;;;5065876;28;20910;-76
2023/06/13 03:11:07;;;;;;;0.10;0.10;;;13.00;99.90;;;;;;5069759;28;20447;-76
2023/06/13 03:13:33;;;;;;;0.10;0.10;;;13.00;99.90;;;;;;5078749;28;20196;-75
2023/06/13 03:16:01;;;;;;;0.10;0.10;;;13.00;99.90;;;;;;5077567;28;20645;-76
2023/06/13 03:18:26;;;;;;;0.10;0.10;;;12.90;99.90;;;;;;5070050;28;20170;-76
2023/06/13 03:20:52;;;;;;;0.10;0.10;;;12.90;99.90;;;;;;5069356;28;20814;-75
2023/06/13 03:23:17;;;;;;;0.10;0.10;;;13.00;99.90;;;;;;5066151;28;20200;-76
2023/06/13 03:25:44;;;;;;;0.10;0.10;;;13.00;99.90;;;;;;5078196;28;20200;-74
2023/06/13 03:28:10;;;;;;;0.10;0.10;;;13.00;99.90;;;;;;5074457;28;20648;-77
2023/06/13 03:30:36;;;;;;;0.20;0.20;;;13.00;99.90;;;;;;5053607;28;20530;-76
2023/06/13 03:33:01;;;;;;;0.10;0.10;;;13.10;99.90;;;;;;5049857;28;20952;-77
2023/06/13 03:35:27;;;;;;;0.10;0.10;;;13.00;99.90;;;;;;5064556;28;20439;-77
2023/06/13 03:37:53;;;;;;;0.10;0.10;;;13.10;99.90;;;;;;5067117;28;20186;-76
2023/06/13 03:40:18;;;;;;;0.10;0.10;;;13.10;99.90;;;;;;5061169;28;20185;-76
2023/06/13 03:42:44;;;;;;;0.10;0.10;;;13.20;99.90;;;;;;5069778;28;20340;-77
2023/06/13 03:45:10;;;;;;;0.10;0.10;;;13.20;99.90;;;;;;5053858;28;20178;-77
2023/06/13 03:47:37;;;;;;;0.10;0.10;;;13.30;99.90;;;;;;5082595;28;20223;-77
2023/06/13 03:50:03;;;;;;;0.10;0.10;;;13.30;99.90;;;;;;5066662;28;20189;-76
2023/06/13 03:52:28;;;;;;;0.10;0.10;;;13.40;99.90;;;;;;5077476;28;20456;-77
2023/06/13 03:54:54;;;;;;;0.10;0.10;;;13.50;99.90;;;;;;5069552;28;20197;-76
2023/06/13 03:57:20;;;;;;;0.10;0.10;;;13.50;99.90;;;;;;5066704;28;20264;-77
2023/06/13 03:59:45;;;;;;;0.17;0.17;;;13.40;99.90;;;;;;5059340;28;20580;-76
2023/06/13 04:02:13;;;;;;;0.10;0.10;;;13.40;99.90;;;;;;5070468;28;20572;-76
2023/06/13 04:04:42;;;;;;;0.10;0.10;;;13.50;99.90;;;;;;5065582;28;20965;-77
2023/06/13 04:07:08;;;;;;;0.10;0.10;;;13.60;99.90;;;;;;5049080;28;20484;-77
2023/06/13 04:09:34;;;;;;;0.10;0.10;;;13.60;99.90;;;;;;5071044;28;20799;-77
2023/06/13 04:12:00;;;;;;;0.10;0.10;;;13.60;99.90;;;;;;5086391;28;20438;-76
2023/06/13 04:14:26;;;;;;;0.10;0.10;;;13.50;99.90;;;;;;5057962;28;20617;-77
2023/06/13 04:16:52;;;;;;;0.10;0.10;;;13.60;99.90;;;;;;5049299;28;20460;-77
2023/06/13 04:19:18;;;;;;;0.10;0.10;;;13.60;99.90;;;;;;5068123;28;20188;-77
2023/06/13 04:21:45;;;;;;;0.10;0.10;;;13.70;99.90;;;;;;5067606;28;20535;-77
2023/06/13 04:24:12;;;;;;;0.10;0.10;;;13.70;99.90;;;;;;5067894;28;20531;-77
2023/06/13 04:26:38;;;;;;;0.10;0.10;;;13.70;99.90;;;;;;5070526;28;20541;-76
2023/06/13 04:29:03;;;;;;;0.10;0.10;;;13.70;99.90;;;;;;5082364;28;20528;-77
2023/06/13 04:31:34;;;;;;;0.10;0.10;;;13.60;99.90;;;;;;5076100;28;20200;-77
2023/06/13 04:34:03;;;;;;;0.10;0.10;;;13.70;99.90;;;;;;5070271;28;20185;-76
2023/06/13 04:36:32;;;;;;;0.10;0.10;;;13.70;99.90;;;;;;5068622;28;20458;-77
2023/06/13 04:39:04;;;;;;;0.10;0.10;;;13.80;99.90;;;;;;5069846;28;20448;-76
2023/06/13 04:41:33;;;;;;;0.10;0.10;;;14.00;99.90;;;;;;5070554;28;20456;-76
2023/06/13 04:43:59;;;;;;;0.10;0.10;;;14.10;99.90;;;;;;5076677;28;20529;-76
2023/06/13 04:46:24;;;;;;;0.10;0.10;;;14.10;99.90;;;;;;5069412;28;20554;-76
2023/06/13 04:48:50;;;;;;;0.10;0.10;;;14.20;99.90;;;;;;5071239;28;20197;-76
2023/06/13 04:51:15;;;;;;;0.10;0.10;;;14.20;99.90;;;;;;5066447;28;20193;-76
2023/06/13 04:53:41;;;;;;;0.20;0.17;;;14.30;99.90;;;;;;5055022;28;20902;-76
2023/06/13 04:56:07;;;;;;;0.10;0.10;;;14.40;99.90;;;;;;5068081;28;20223;-77
2023/06/13 04:58:33;;;;;;;0.10;0.10;;;14.30;99.90;;;;;;5057007;28;20264;-77
2023/06/13 05:00:59;;;;;;;0.10;0.10;;;14.50;99.90;;;;;;5069479;28;20467;-76
2023/06/13 05:03:25;;;;;;;0.10;0.10;;;14.50;99.90;;;;;;5050752;28;20193;-76
2023/06/13 05:05:51;;;;;;;0.10;0.10;;;14.50;99.90;;;;;;5070441;28;20435;-76
2023/06/13 05:08:21;;;;;;;0.10;0.10;;;14.60;99.90;;;;;;5067672;28;20458;-76
2023/06/13 05:10:47;;;;;;;0.10;0.10;;;14.80;99.90;;;;;;5046399;28;20861;-76
2023/06/13 05:13:14;;;;;;;0.10;0.10;;;14.90;99.90;;;;;;5080507;28;20444;-76
2023/06/13 05:15:42;;;;;;;0.10;0.10;;;15.00;99.90;;;;;;5065815;28;20444;-76
2023/06/13 05:18:12;;;;;;;0.10;0.10;;;15.10;99.90;;;;;;5075243;28;20456;-76
2023/06/13 05:20:37;;;;;;;0.10;0.10;;;15.20;99.90;;;;;;5068283;28;20434;-76
2023/06/13 05:23:03;;;;;;;0.10;0.10;;;15.50;99.90;;;;;;5054006;28;20993;-77
2023/06/13 05:25:29;;;;;;;0.10;0.10;;;15.40;99.90;;;;;;5071425;28;20646;-75
2023/06/13 05:27:55;;;;;;;0.10;0.10;;;15.40;99.90;;;;;;5077230;28;20244;-77
2023/06/13 05:30:21;;;;;;;0.10;0.10;;;15.60;99.90;;;;;;5073823;28;20565;-77
2023/06/13 05:32:47;;;;;;;0.10;0.10;;;15.50;99.90;;;;;;5065713;28;20443;-76
2023/06/13 05:35:12;;;;;;;0.10;0.10;;;15.50;99.90;;;;;;5073223;28;20181;-75
2023/06/13 05:37:38;;;;;;;0.10;0.10;;;15.50;99.90;;;;;;5075704;28;20285;-76
2023/06/13 05:40:09;;;;;;;0.10;0.10;;;15.80;99.90;;;;;;5064140;28;20893;-77
2023/06/13 05:42:36;;;;;;;0.10;0.10;;;15.80;99.90;;;;;;5082658;28;20455;-76
2023/06/13 05:45:03;;;;;;;0.10;0.10;;;15.90;99.90;;;;;;5071041;28;20456;-76
2023/06/13 05:47:29;;;;;;;0.10;0.10;;;15.90;99.90;;;;;;5051638;28;20942;-75
2023/06/13 05:49:54;;;;;;;0.10;0.10;;;15.90;99.90;;;;;;5067125;28;20442;-77
2023/06/13 05:52:20;;;;;;;0.10;0.10;;;16.10;99.90;;;;;;5079621;28;20680;-76
2023/06/13 05:54:46;;;;;;;0.10;0.10;;;16.10;99.90;;;;;;5077283;28;20659;-76
2023/06/13 05:57:12;;;;;;;0.10;0.10;;;16.20;99.90;;;;;;5069654;28;20622;-76
2023/06/13 05:59:38;;;;;;;0.10;0.10;;;16.30;99.90;;;;;;5069976;28;21065;-76
2023/06/13 06:02:04;;;;;;;0.10;0.10;;;16.40;99.90;;;;;;5063567;28;20522;-76
2023/06/13 06:04:29;;;;;;;0.10;0.10;;;16.40;99.90;;;;;;5074566;28;20193;-77
2023/06/13 06:06:55;;;;;;;0.10;0.10;;;16.50;99.90;;;;;;5073124;28;20328;-76
2023/06/13 06:09:20;;;;;;;0.10;0.10;;;16.60;99.90;;;;;;5069876;28;20735;-77
2023/06/13 06:11:46;;;;;;;0.10;0.10;;;16.50;99.90;;;;;;5072561;28;20186;-76
2023/06/13 06:14:12;;;;;;;0.10;0.10;;;16.60;99.90;;;;;;5068611;28;20380;-77
2023/06/13 06:16:38;;;;;;;0.10;0.10;;;16.80;99.90;;;;;;5076139;28;20725;-76
2023/06/13 06:19:03;;;;;;;0.10;0.10;;;16.60;99.90;;;;;;5076571;28;20442;-77
2023/06/13 06:21:29;;;;;;;0.10;0.10;;;16.70;99.90;;;;;;5070421;28;20228;-76
2023/06/13 06:23:54;;;;;;;0.10;0.10;;;16.70;99.90;;;;;;5055289;28;20221;-76
2023/06/13 06:26:24;;;;;;;0.10;0.10;;;16.80;99.90;;;;;;5072603;28;20209;-77
2023/06/13 06:28:50;;;;;;;0.10;0.10;;;16.90;99.90;;;;;;5075325;28;20247;-77
2023/06/13 06:31:16;;;;;;;0.10;0.10;;;17.10;99.90;;;;;;5072372;28;20436;-76
2023/06/13 06:33:41;;;;;;;0.10;0.10;;;17.10;99.90;;;;;;5077993;28;20181;-76
2023/06/13 06:36:07;;;;;;;0.10;0.10;;;17.10;99.90;;;;;;5076846;28;20446;-76
2023/06/13 06:38:32;;;;;;;0.10;0.10;;;17.30;99.90;;;;;;5063857;28;20185;-77
2023/06/13 06:40:58;;;;;;;0.10;0.10;;;17.30;99.90;;;;;;5079476;28;20198;-76
2023/06/13 06:43:23;;;;;;;0.10;0.10;;;17.30;99.90;;;;;;5064986;28;20183;-77
2023/06/13 06:45:49;;;;;;;0.10;0.10;;;17.20;99.90;;;;;;5055627;28;20230;-77
2023/06/13 06:48:14;;;;;;;0.10;0.10;;;17.40;99.90;;;;;;5070468;28;20556;-76
2023/06/13 06:50:40;;;;;;;0.10;0.10;;;17.40;99.90;;;;;;5061310;28;20191;-77
2023/06/13 06:53:05;;;;;;;0.10;0.10;;;17.50;99.90;;;;;;5051747;28;20182;-77
2023/06/13 06:55:31;;;;;;;0.10;0.10;;;17.50;99.90;;;;;;5069133;28;20209;-77
2023/06/13 06:57:56;;;;;;;0.10;0.10;;;17.60;99.90;;;;;;5060638;28;20178;-77
2023/06/13 07:00:22;;;;;;;0.10;0.10;;;17.70;99.90;;;;;;5064565;28;20269;-77
2023/06/13 07:02:49;;;;;;;0.10;0.10;;;17.80;99.90;;;;;;5071835;28;20189;-77
2023/06/13 07:05:15;;;;;;;0.10;0.10;;;17.90;99.90;;;;;;5061297;28;20881;-77
2023/06/13 07:07:42;;;;;;;0.10;0.10;;;17.90;99.90;;;;;;5064482;28;20514;-77
2023/06/13 07:10:08;;;;;;;0.10;0.10;;;18.00;99.90;;;;;;5050044;28;20452;-76
2023/06/13 07:12:34;;;;;;;0.10;0.10;;;18.00;99.90;;;;;;5055115;28;20447;-77
2023/06/13 07:15:00;;;;;;;0.10;0.10;;;18.20;99.90;;;;;;5066987;28;20990;-78
2023/06/13 07:17:25;;;;;;;0.10;0.10;;;18.10;99.90;;;;;;5064822;28;20452;-77
2023/06/13 07:19:51;;;;;;;0.10;0.10;;;18.10;99.90;;;;;;5067820;28;20682;-77
2023/06/13 07:22:17;;;;;;;0.10;0.10;;;18.10;99.90;;;;;;5065250;28;20186;-78
2023/06/13 07:24:42;;;;;;;0.10;0.10;;;18.10;99.90;;;;;;5063231;28;20188;-78
2023/06/13 07:27:08;;;;;;;0.10;0.10;;;18.20;99.90;;;;;;5058202;28;20230;-78
2023/06/13 07:29:34;;;;;;;0.10;0.10;;;18.40;99.90;;;;;;5038336;28;20240;-77
2023/06/13 07:32:03;;;;;;;0.10;0.10;;;18.40;99.90;;;;;;5058395;28;20190;-77
2023/06/13 07:34:28;;;;;;;0.10;0.10;;;18.40;99.90;;;;;;5045982;28;20444;-78
2023/06/13 07:36:54;;;;;;;0.10;0.10;;;18.60;99.90;;;;;;5061502;28;21352;-77
2023/06/13 07:39:20;;;;;;;0.10;0.10;;;18.50;99.90;;;;;;5043681;28;20183;-77
2023/06/13 07:41:48;;;;;;;0.10;0.10;;;18.40;99.90;;;;;;5067077;28;20178;-78
2023/06/13 07:44:14;;;;;;;0.10;0.10;;;18.60;99.90;;;;;;5059998;28;20518;-77
2023/06/13 07:46:40;;;;;;;0.10;0.10;;;18.80;99.90;;;;;;5061380;28;20869;-77
2023/06/13 07:49:05;;;;;;;0.10;0.10;;;18.80;99.90;;;;;;5063175;28;20193;-77
2023/06/13 07:51:32;;;;;;;0.10;0.10;;;19.00;99.90;;;;;;5064908;28;20619;-78
2023/06/13 07:53:57;;;;;;;0.10;0.10;;;19.10;99.90;;;;;;5062807;28;21194;-78
2023/06/13 07:56:23;;;;;;;0.10;0.10;;;19.00;99.90;;;;;;5080924;28;20432;-77
2023/06/13 07:58:48;;;;;;;0.10;0.10;;;18.90;99.90;;;;;;5074845;28;20316;-77
2023/06/13 08:01:14;;;;;;;0.10;0.00;;;18.90;99.90;;;;;;5073020;28;20189;-77
2023/06/13 08:03:40;;;;;;;0.10;0.10;;;19.10;99.90;;;;;;5076603;28;20582;-78
2023/06/13 08:06:05;;;;;;;0.10;0.10;;;19.20;99.90;;;;;;5072363;28;20189;-77
2023/06/13 08:08:31;;;;;;;0.10;0.00;;;19.40;99.90;;;;;;5055080;28;20688;-77
2023/06/13 08:10:56;;;;;;;0.10;0.10;;;19.40;99.90;;;;;;5079115;28;20188;-78
2023/06/13 08:13:22;;;;;;;0.10;0.10;;;19.50;99.90;;;;;;5082631;28;20585;-76
2023/06/13 08:15:48;;;;;;;0.10;0.00;;;19.50;99.90;;;;;;5053957;28;20178;-78
2023/06/13 08:18:14;;;;;;;0.10;0.00;;;19.60;99.90;;;;;;5075922;28;20530;-77
2023/06/13 08:20:40;;;;;;;0.10;0.10;;;19.90;99.90;;;;;;5067970;28;20427;-77
2023/06/13 08:23:06;;;;;;;0.10;0.00;;;20.10;99.90;;;;;;5065744;28;20440;-77
2023/06/13 08:25:31;;;;;;;0.10;0.00;;;20.30;99.90;;;;;;5068747;28;20217;-77
2023/06/13 08:27:57;;;;;;;0.10;0.00;;;20.30;99.90;;;;;;5075434;28;20314;-76
2023/06/13 08:30:23;;;;;;;0.10;0.00;;;20.50;99.90;;;;;;5065006;28;20272;-78
2023/06/13 08:32:52;;;;;;;0.10;0.10;;;20.20;99.90;;;;;;5069295;28;20444;-78
2023/06/13 08:35:18;;;;;;;0.10;0.00;;;20.30;99.90;;;;;;5052625;28;20436;-77
2023/06/13 08:37:43;;;;;;;0.10;0.00;;;20.40;99.90;;;;;;5053302;28;20448;-79
2023/06/13 08:40:10;;;;;;;0.10;0.00;;;20.40;99.90;;;;;;5050249;28;20440;-78
2023/06/13 08:42:37;;;;;;;0.10;0.00;;;20.80;99.90;;;;;;5071165;28;20217;-78
2023/06/13 08:45:03;;;;;;;0.10;0.00;;;20.70;99.90;;;;;;5066380;28;20515;-77
2023/06/13 08:47:29;;;;;;;0.10;0.10;;;20.60;99.90;;;;;;5071808;28;20483;-77
2023/06/13 08:49:54;;;;;;;0.10;0.00;;;20.70;99.90;;;;;;5071888;28;20444;-78
2023/06/13 08:52:20;;;;;;;0.10;0.00;;;20.80;99.90;;;;;;5073412;28;20193;-78
2023/06/13 08:54:51;;;;;;;0.10;0.10;;;20.70;99.90;;;;;;5085651;28;20176;-79
2023/06/13 08:57:17;;;;;;;0.10;0.00;;;20.80;99.90;;;;;;5050916;28;20455;-77
2023/06/13 08:59:45;;;;;;;0.10;0.00;;;21.10;99.90;;;;;;5066253;28;20476;-78
2023/06/13 09:02:14;;;;;;;0.10;0.00;;;21.10;99.90;;;;;;5069109;28;20444;-77
2023/06/13 09:04:43;;;;;;;0.10;0.00;;;21.40;99.90;;;;;;5068605;28;20671;-78
2023/06/13 09:07:10;;;;;;;0.10;0.10;;;21.60;99.90;;;;;;5080180;28;20570;-78
2023/06/13 09:09:38;;;;;;;0.10;0.00;;;21.50;99.90;;;;;;5071298;28;20443;-78
2023/06/13 09:12:06;;;;;;;0.00;0.00;;;21.70;99.90;;;;;;5058370;28;20458;-77
2023/06/13 09:14:32;;;;;;;0.00;0.00;;;21.70;99.90;;;;;;5074900;28;20448;-77
2023/06/13 09:16:58;;;;;;;0.00;0.00;;;21.80;99.90;;;;;;5067160;28;20452;-77
2023/06/13 09:19:24;;;;;;;0.00;0.00;;;21.90;99.90;;;;;;5085015;28;20193;-77
2023/06/13 09:21:50;;;;;;;0.00;0.00;;;22.10;99.90;;;;;;5079751;28;20483;-78
2023/06/13 09:24:16;;;;;;;0.00;0.00;;;22.10;99.90;;;;;;5089617;28;20552;-78
2023/06/13 09:26:41;;;;;;;0.00;0.00;;;21.90;99.90;;;;;;5074243;28;20259;-78
2023/06/13 09:29:07;;;;;;;0.00;0.00;;;22.30;99.90;;;;;;5077770;28;20204;-78
2023/06/13 09:31:36;;;;;;;0.00;0.00;;;22.70;99.90;;;;;;5071829;28;20236;-77
2023/06/13 09:34:02;;;;;;;0.00;0.00;;;22.80;99.90;;;;;;5052989;28;20479;-78
2023/06/13 09:36:27;;;;;;;0.10;0.00;;;22.60;99.90;;;;;;5067270;28;20923;-78
2023/06/13 09:38:56;;;;;;;0.10;0.00;;;22.50;99.90;;;;;;5071321;28;20619;-78
2023/06/13 09:41:24;;;;;;;0.10;0.00;;;22.80;99.90;;;;;;5067713;28;20193;-78
2023/06/13 09:43:52;;;;;;;0.10;0.00;;;23.10;99.90;;;;;;5068019;28;20448;-78
2023/06/13 09:46:19;;;;;;;0.10;0.00;;;23.00;99.90;;;;;;5071010;28;20971;-78
2023/06/13 09:48:45;;;;;;;0.10;0.00;;;23.20;99.90;;;;;;5051097;28;21008;-78
2023/06/13 09:51:11;;;;;;;0.10;0.00;;;23.50;99.90;;;;;;5066872;28;20437;-78
2023/06/13 09:53:37;;;;;;;0.10;0.00;;;23.70;99.90;;;;;;5074047;28;20423;-78
2023/06/13 09:56:02;;;;;;;0.10;0.00;;;23.80;99.90;;;;;;5065484;28;20450;-77
2023/06/13 09:58:28;;;;;;;0.10;0.00;;;23.90;99.90;;;;;;5052690;28;20736;-77
2023/06/13 10:00:57;;;;;;;0.10;0.00;;;23.80;99.90;;;;;;5069225;28;20276;-78
2023/06/13 10:03:23;;;;;;;0.10;0.00;;;23.90;99.90;;;;;;5067355;28;20190;-78
2023/06/13 10:05:49;;;;;;;0.10;0.00;;;24.00;99.90;;;;;;5064597;28;20448;-77
2023/06/13 10:08:15;;;;;;;0.10;0.00;;;24.20;99.90;;;;;;5065609;28;20476;-77
2023/06/13 10:10:41;;;;;;;0.10;0.00;;;24.30;99.90;;;;;;5064796;28;20507;-77
2023/06/13 10:13:14;;;;;;;0.10;0.00;;;24.20;99.90;;;;;;5080796;28;20205;-79
2023/06/13 10:15:47;;;;;;;0.07;0.00;;;24.50;99.90;;;;;;5064045;28;20265;-78
2023/06/13 10:18:15;;;;;;;0.10;0.00;;;24.40;99.90;;;;;;5061418;28;20444;-79
2023/06/13 10:20:46;;;;;;;0.10;0.00;;;24.50;99.60;;;;;;5070795;28;20431;-77
2023/06/13 10:23:15;;;;;;;0.10;0.00;;;24.80;99.90;;;;;;5091112;28;20403;-77
2023/06/13 10:25:43;;;;;;;0.10;0.00;;;24.90;99.90;;;;;;5071531;28;20440;-77
2023/06/13 10:28:24;;;;;;;0.10;0.00;;;25.10;99.20;;;;;;5064812;28;20583;-76
2023/06/13 10:31:26;;;;;;;0.10;0.00;;;24.70;97.60;;;;;;5071740;28;20988;-76
2023/06/13 10:34:17;;;;;;;0.10;0.00;;;25.60;98.00;;;;;;5074569;28;20828;-76
2023/06/13 10:37:05;;;;;;;0.10;0.00;;;25.60;98.10;;;;;;5068351;28;20451;-77
2023/06/13 10:39:45;;;;;;;0.10;0.00;;;25.30;97.80;;;;;;5054808;28;20969;-79
2023/06/13 10:42:31;;;;;;;0.10;0.00;;;24.90;98.20;;;;;;5081086;28;20433;-78
2023/06/13 10:45:08;;;;;;;0.10;0.10;;;25.40;98.60;;;;;;5050636;28;20490;-79
2023/06/13 10:47:37;;;;;;;0.10;0.00;;;25.80;98.40;;;;;;5067153;28;20522;-78
2023/06/13 10:50:08;;;;;;;0.10;0.00;;;25.80;97.50;;;;;;5067808;28;20547;-78
2023/06/13 10:52:34;;;;;;;0.10;0.00;;;25.60;97.40;;;;;;5069187;28;20451;-78
2023/06/13 10:55:01;;;;;;;0.10;0.00;;;25.90;97.60;;;;;;5070698;28;20416;-77
2023/06/13 10:57:50;;;;;;;0.10;0.00;;;26.10;96.90;;;;;;5065544;28;20217;-77
2023/06/13 11:00:25;;;;;;;0.10;0.00;;;26.00;96.70;;;;;;5067423;28;20586;-78
2023/06/13 11:03:09;;;;;;;0.10;0.00;;;26.50;96.60;;;;;;5068360;28;20790;-76
2023/06/13 11:05:44;;;;;;;0.10;0.00;;;26.70;95.50;;;;;;5062061;28;21141;-78
2023/06/13 11:08:21;;;;;;;0.10;0.00;;;26.40;94.40;;;;;;5075045;28;20502;-78
2023/06/13 11:10:48;;;;;;;0.10;0.00;;;27.00;96.50;;;;;;5070965;28;20443;-78
2023/06/13 11:13:23;;;;;;;0.10;0.00;;;27.10;94.30;;;;;;5070675;28;20454;-78
2023/06/13 11:15:50;;;;;;;0.10;0.00;;;27.40;95.10;;;;;;5078911;28;20428;-78
2023/06/13 11:18:18;;;;;;;0.10;0.00;;;27.70;94.30;;;;;;5068824;28;20444;-78
2023/06/13 11:20:51;;;;;;;0.10;0.00;;;27.40;93.00;;;;;;5085741;28;20854;-78
2023/06/13 11:23:32;;;;;;;0.10;0.00;;;27.40;92.80;;;;;;5070449;28;20444;-78
2023/06/13 11:25:58;;;;;;;0.10;0.00;;;27.60;92.90;;;;;;5065102;28;20451;-78
2023/06/13 11:28:24;;;;;;;0.10;0.00;;;27.60;94.20;;;;;;5068010;28;20830;-79
2023/06/13 11:30:52;;;;;;;0.10;0.00;;;27.70;92.20;;;;;;5048453;28;20188;-78
2023/06/13 11:33:18;;;;;;;0.10;0.00;;;27.50;92.40;;;;;;5071209;28;20640;-79
2023/06/13 11:35:51;;;;;;;0.10;0.00;;;27.50;92.20;;;;;;5069367;28;20448;-79
2023/06/13 11:38:24;;;;;;;0.10;0.00;;;27.80;91.50;;;;;;5073619;28;20436;-79
2023/06/13 11:40:56;;;;;;;0.10;0.00;;;28.20;92.20;;;;;;5078274;28;20500;-75
2023/06/13 11:43:24;;;;;;;0.10;0.00;;;28.20;90.50;;;;;;5072398;28;20448;-76
2023/06/13 11:45:51;;;;;;;0.10;0.00;;;27.80;90.40;;;;;;5074452;28;20444;-77
2023/06/13 11:48:22;;;;;;;0.00;0.00;;;28.10;90.10;;;;;;5072123;28;20486;-77
2023/06/13 11:50:48;;;;;;;0.00;0.00;;;28.50;90.30;;;;;;5071518;28;20451;-76
2023/06/13 11:53:13;;;;;;;0.00;0.00;;;28.60;89.30;;;;;;5056032;28;20808;-76
2023/06/13 11:55:39;;;;;;;0.00;0.00;;;28.90;87.20;;;;;;5073002;28;20186;-77
2023/06/13 11:58:05;;;;;;;0.00;0.00;;;28.10;89.20;;;;;;5073246;28;20689;-77
2023/06/13 12:00:53;;;;;;;0.00;0.00;;;28.10;91.70;;;;;;5073444;28;20436;-76
2023/06/13 12:03:23;;;;;;;0.00;0.00;;;27.70;91.00;;;;;;5072258;28;20190;-77
2023/06/13 12:05:50;;;;;;;0.00;0.00;;;28.20;90.60;;;;;;5073138;28;20527;-77
2023/06/13 12:08:16;;;;;;;0.00;0.00;;;28.60;89.60;;;;;;5068356;28;23126;-76
2023/06/13 12:10:46;;;;;;;0.00;0.00;;;28.40;90.40;;;;;;5075930;28;20431;-77
2023/06/13 12:13:15;;;;;;;0.00;0.00;;;28.70;90.30;;;;;;5073582;28;20235;-77
2023/06/13 12:15:40;;;;;;;0.00;0.00;;;28.90;90.80;;;;;;5076696;28;20431;-77
2023/06/13 12:18:06;;;;;;;0.00;0.00;;;29.10;89.60;;;;;;5087969;28;20441;-77
2023/06/13 12:20:36;;;;;;;0.00;0.00;;;29.60;86.10;;;;;;5076005;28;20186;-76
2023/06/13 12:23:01;;;;;;;0.00;0.00;;;29.80;87.10;;;;;;5053716;28;20642;-76
2023/06/13 12:25:30;;;;;;;0.00;0.00;;;29.20;88.80;;;;;;5071883;28;20444;-75
2023/06/13 12:27:57;;;;;;;0.00;0.00;;;28.70;84.80;;;;;;5068905;28;20263;-76
2023/06/13 12:30:23;;;;;;;0.00;0.00;;;28.30;87.90;;;;;;5079096;28;20627;-76
2023/06/13 12:32:56;;;;;;;0.00;0.00;;;28.70;89.20;;;;;;5079874;28;21014;-76
2023/06/13 12:35:23;;;;;;;0.00;0.00;;;29.30;86.60;;;;;;5057149;28;20440;-78
2023/06/13 12:38:02;;;;;;;0.00;0.00;;;29.20;85.00;;;;;;5089302;28;20451;-78
2023/06/13 12:40:35;;;;;;;0.00;0.00;;;29.20;82.60;;;;;;5072766;28;20454;-75
2023/06/13 12:43:02;;;;;;;0.00;0.00;;;28.40;81.00;;;;;;5076399;28;20475;-77
2023/06/13 12:45:29;;;;;;;0.00;0.00;;;27.60;82.10;;;;;;5065776;28;20466;-76
2023/06/13 12:47:55;;;;;;;0.00;0.00;;;27.80;83.50;;;;;;5059105;28;20483;-76
2023/06/13 12:50:23;;;;;;;0.00;0.00;;;27.40;79.40;;;;;;5071050;28;20444;-76